sensor_id;sensor_type;location;lat;lon;timestamp;temperature;humidity
13742;DHT22;8461;52.356;10.704;2022-11-13T00:01:48;5.70;99.90
13742;DHT22;8461;52.356;10.704;2022-11-13T00:04:13;5.70;99.90
13742;DHT22;8461;52.356;10.704;2022-11-13T00:06:39;5.70;99.90
13742;DHT22;8461;52.356;10.704;2022-11-13T00:09:04;5.60;99.90
13742;DHT22;8461;52.356;10.704;2022-11-13T00:11:30;5.50;99.90
13742;DHT22;8461;52.356;10.704;2022-11-13T00:13:56;5.50;99.90
13742;DHT22;8461;52.356;10.704;2022-11-13T00:16:22;5.50;99.90
13742;DHT22;8461;52.356;10.704;2022-11-13T00:18:47;5.40;99.90
13742;DHT22;8461;52.356;10.704;2022-11-13T00:21:22;5.40;99.90
13742;DHT22;8461;52.356;10.704;2022-11-13T00:23:48;5.40;99.90
13742;DHT22;8461;52.356;10.704;2022-11-13T00:26:16;5.40;99.90
13742;DHT22;8461;52.356;10.704;2022-11-13T00:28:43;5.50;99.90
13742;DHT22;8461;52.356;10.704;2022-11-13T00:31:13;5.50;99.90
13742;DHT22;8461;52.356;10.704;2022-11-13T00:33:39;5.50;99.90
13742;DHT22;8461;52.356;10.704;2022-11-13T00:36:06;5.50;99.90
13742;DHT22;8461;52.356;10.704;2022-11-13T00:38:33;5.50;99.90
13742;DHT22;8461;52.356;10.704;2022-11-13T00:40:59;5.50;99.90
13742;DHT22;8461;52.356;10.704;2022-11-13T00:43:24;5.60;99.90
13742;DHT22;8461;52.356;10.704;2022-11-13T00:45:50;5.60;99.90
13742;DHT22;8461;52.356;10.704;2022-11-13T00:48:16;5.60;99.90
13742;DHT22;8461;52.356;10.704;2022-11-13T00:50:41;5.60;99.90
13742;DHT22;8461;52.356;10.704;2022-11-13T00:53:07;5.60;99.90
13742;DHT22;8461;52.356;10.704;2022-11-13T00:55:32;5.70;99.90
13742;DHT22;8461;52.356;10.704;2022-11-13T00:57:58;5.70;99.90
13742;DHT22;8461;52.356;10.704;2022-11-13T01:00:23;5.60;99.90
13742;DHT22;8461;52.356;10.704;2022-11-13T01:02:49;5.70;99.90
13742;DHT22;8461;52.356;10.704;2022-11-13T01:05:14;5.60;99.90
13742;DHT22;8461;52.356;10.704;2022-11-13T01:07:40;5.60;99.90
13742;DHT22;8461;52.356;10.704;2022-11-13T01:10:06;5.60;99.90
13742;DHT22;8461;52.356;10.704;2022-11-13T01:12:32;5.50;99.90
13742;DHT22;8461;52.356;10.704;2022-11-13T01:14:58;5.50;99.90
13742;DHT22;8461;52.356;10.704;2022-11-13T01:17:23;5.50;99.90
13742;DHT22;8461;52.356;10.704;2022-11-13T01:19:49;5.50;99.90
13742;DHT22;8461;52.356;10.704;2022-11-13T01:22:14;5.50;99.90
13742;DHT22;8461;52.356;10.704;2022-11-13T01:24:40;5.40;99.90
13742;DHT22;8461;52.356;10.704;2022-11-13T01:27:06;5.40;99.90
13742;DHT22;8461;52.356;10.704;2022-11-13T01:29:31;5.40;99.90
13742;DHT22;8461;52.356;10.704;2022-11-13T01:31:57;5.30;99.90
13742;DHT22;8461;52.356;10.704;2022-11-13T01:34:23;5.30;99.90
13742;DHT22;8461;52.356;10.704;2022-11-13T01:36:48;5.30;99.90
13742;DHT22;8461;52.356;10.704;2022-11-13T01:39:14;5.30;99.90
13742;DHT22;8461;52.356;10.704;2022-11-13T01:41:39;5.30;99.90
13742;DHT22;8461;52.356;10.704;2022-11-13T01:44:08;5.30;99.90
13742;DHT22;8461;52.356;10.704;2022-11-13T01:46:40;5.30;99.90
13742;DHT22;8461;52.356;10.704;2022-11-13T01:51:39;5.20;99.90
13742;DHT22;8461;52.356;10.704;2022-11-13T01:54:11;5.20;99.90
13742;DHT22;8461;52.356;10.704;2022-11-13T01:56:38;5.20;99.90
13742;DHT22;8461;52.356;10.704;2022-11-13T01:59:09;5.10;99.90
13742;DHT22;8461;52.356;10.704;2022-11-13T02:01:37;5.10;99.90
13742;DHT22;8461;52.356;10.704;2022-11-13T02:04:03;5.10;99.90
13742;DHT22;8461;52.356;10.704;2022-11-13T02:06:34;5.00;99.90
13742;DHT22;8461;52.356;10.704;2022-11-13T02:09:01;5.00;99.90
13742;DHT22;8461;52.356;10.704;2022-11-13T02:11:26;5.00;99.90
13742;DHT22;8461;52.356;10.704;2022-11-13T02:13:52;4.90;99.90
13742;DHT22;8461;52.356;10.704;2022-11-13T02:16:18;4.90;99.90
13742;DHT22;8461;52.356;10.704;2022-11-13T02:18:44;4.90;99.90
13742;DHT22;8461;52.356;10.704;2022-11-13T02:21:14;4.90;99.90
13742;DHT22;8461;52.356;10.704;2022-11-13T02:23:59;4.80;99.90
13742;DHT22;8461;52.356;10.704;2022-11-13T02:26:28;4.80;99.90
13742;DHT22;8461;52.356;10.704;2022-11-13T02:28:55;4.90;99.90
13742;DHT22;8461;52.356;10.704;2022-11-13T02:31:21;4.90;99.90
13742;DHT22;8461;52.356;10.704;2022-11-13T02:33:46;4.90;99.90
13742;DHT22;8461;52.356;10.704;2022-11-13T02:36:13;5.00;99.90
13742;DHT22;8461;52.356;10.704;2022-11-13T02:38:40;5.00;99.90
13742;DHT22;8461;52.356;10.704;2022-11-13T02:41:06;5.00;99.90
13742;DHT22;8461;52.356;10.704;2022-11-13T02:43:31;5.00;99.90
13742;DHT22;8461;52.356;10.704;2022-11-13T02:45:57;5.00;99.90
13742;DHT22;8461;52.356;10.704;2022-11-13T02:48:22;5.00;99.90
13742;DHT22;8461;52.356;10.704;2022-11-13T02:50:48;5.00;99.90
13742;DHT22;8461;52.356;10.704;2022-11-13T02:53:13;4.90;99.90
13742;DHT22;8461;52.356;10.704;2022-11-13T02:55:39;4.90;99.90
13742;DHT22;8461;52.356;10.704;2022-11-13T02:58:04;4.90;99.90
13742;DHT22;8461;52.356;10.704;2022-11-13T03:00:30;4.90;99.90
13742;DHT22;8461;52.356;10.704;2022-11-13T03:02:55;4.90;99.90
13742;DHT22;8461;52.356;10.704;2022-11-13T03:05:21;4.90;99.90
13742;DHT22;8461;52.356;10.704;2022-11-13T03:07:47;4.90;99.90
13742;DHT22;8461;52.356;10.704;2022-11-13T03:10:13;4.80;99.90
13742;DHT22;8461;52.356;10.704;2022-11-13T03:12:39;4.90;99.90
13742;DHT22;8461;52.356;10.704;2022-11-13T03:15:06;4.80;99.90
13742;DHT22;8461;52.356;10.704;2022-11-13T03:17:32;4.80;99.90
13742;DHT22;8461;52.356;10.704;2022-11-13T03:19:58;4.80;99.90
13742;DHT22;8461;52.356;10.704;2022-11-13T03:22:24;4.70;99.90
13742;DHT22;8461;52.356;10.704;2022-11-13T03:24:50;4.70;99.90
13742;DHT22;8461;52.356;10.704;2022-11-13T03:27:15;4.70;99.90
13742;DHT22;8461;52.356;10.704;2022-11-13T03:29:41;4.70;99.90
13742;DHT22;8461;52.356;10.704;2022-11-13T03:32:06;4.70;99.90
13742;DHT22;8461;52.356;10.704;2022-11-13T03:34:32;4.60;99.90
13742;DHT22;8461;52.356;10.704;2022-11-13T03:36:57;4.60;99.90
13742;DHT22;8461;52.356;10.704;2022-11-13T03:39:23;4.50;99.90
13742;DHT22;8461;52.356;10.704;2022-11-13T03:41:48;4.50;99.90
13742;DHT22;8461;52.356;10.704;2022-11-13T03:44:14;4.50;99.90
13742;DHT22;8461;52.356;10.704;2022-11-13T03:46:39;4.40;99.90
13742;DHT22;8461;52.356;10.704;2022-11-13T03:49:05;4.40;99.90
13742;DHT22;8461;52.356;10.704;2022-11-13T03:51:31;4.50;99.90
13742;DHT22;8461;52.356;10.704;2022-11-13T03:53:56;4.50;99.90
13742;DHT22;8461;52.356;10.704;2022-11-13T03:56:22;4.50;99.90
13742;DHT22;8461;52.356;10.704;2022-11-13T03:58:47;4.60;99.90
13742;DHT22;8461;52.356;10.704;2022-11-13T04:01:13;4.60;99.90
13742;DHT22;8461;52.356;10.704;2022-11-13T04:03:38;4.50;99.90
13742;DHT22;8461;52.356;10.704;2022-11-13T04:06:04;4.50;99.90
13742;DHT22;8461;52.356;10.704;2022-11-13T04:08:29;4.50;99.90
13742;DHT22;8461;52.356;10.704;2022-11-13T04:11:04;4.50;99.90
13742;DHT22;8461;52.356;10.704;2022-11-13T04:13:30;4.50;99.90
13742;DHT22;8461;52.356;10.704;2022-11-13T04:15:55;4.50;99.90
13742;DHT22;8461;52.356;10.704;2022-11-13T04:18:21;4.50;99.90
13742;DHT22;8461;52.356;10.704;2022-11-13T04:20:46;4.40;99.90
13742;DHT22;8461;52.356;10.704;2022-11-13T04:23:12;4.40;99.90
13742;DHT22;8461;52.356;10.704;2022-11-13T04:25:40;4.40;99.90
13742;DHT22;8461;52.356;10.704;2022-11-13T04:28:05;4.30;99.90
13742;DHT22;8461;52.356;10.704;2022-11-13T04:30:31;4.30;99.90
13742;DHT22;8461;52.356;10.704;2022-11-13T04:32:56;4.30;99.90
13742;DHT22;8461;52.356;10.704;2022-11-13T04:35:22;4.30;99.90
13742;DHT22;8461;52.356;10.704;2022-11-13T04:37:47;4.30;99.90
13742;DHT22;8461;52.356;10.704;2022-11-13T04:40:13;4.30;99.90
13742;DHT22;8461;52.356;10.704;2022-11-13T04:42:38;4.30;99.90
13742;DHT22;8461;52.356;10.704;2022-11-13T04:45:14;4.20;99.90
13742;DHT22;8461;52.356;10.704;2022-11-13T04:47:40;4.20;99.90
13742;DHT22;8461;52.356;10.704;2022-11-13T04:50:06;4.10;99.90
13742;DHT22;8461;52.356;10.704;2022-11-13T04:52:31;4.10;99.90
13742;DHT22;8461;52.356;10.704;2022-11-13T04:54:57;4.10;99.90
13742;DHT22;8461;52.356;10.704;2022-11-13T04:57:23;4.10;99.90
13742;DHT22;8461;52.356;10.704;2022-11-13T04:59:48;4.10;99.90
13742;DHT22;8461;52.356;10.704;2022-11-13T05:02:14;4.00;99.90
13742;DHT22;8461;52.356;10.704;2022-11-13T05:04:40;4.00;99.90
13742;DHT22;8461;52.356;10.704;2022-11-13T05:07:05;4.00;99.90
13742;DHT22;8461;52.356;10.704;2022-11-13T05:09:31;3.90;99.90
13742;DHT22;8461;52.356;10.704;2022-11-13T05:11:56;3.90;99.90
13742;DHT22;8461;52.356;10.704;2022-11-13T05:14:22;3.80;99.90
13742;DHT22;8461;52.356;10.704;2022-11-13T05:16:47;3.80;99.90
13742;DHT22;8461;52.356;10.704;2022-11-13T05:19:15;3.80;99.90
13742;DHT22;8461;52.356;10.704;2022-11-13T05:21:41;3.70;99.90
13742;DHT22;8461;52.356;10.704;2022-11-13T05:24:09;3.60;99.90
13742;DHT22;8461;52.356;10.704;2022-11-13T05:26:37;3.60;99.90
13742;DHT22;8461;52.356;10.704;2022-11-13T05:29:03;3.60;99.90
13742;DHT22;8461;52.356;10.704;2022-11-13T05:31:28;3.70;99.90
13742;DHT22;8461;52.356;10.704;2022-11-13T05:33:54;3.60;99.90
13742;DHT22;8461;52.356;10.704;2022-11-13T05:36:21;3.60;99.90
13742;DHT22;8461;52.356;10.704;2022-11-13T05:38:47;3.60;99.90
13742;DHT22;8461;52.356;10.704;2022-11-13T05:41:18;3.60;99.90
13742;DHT22;8461;52.356;10.704;2022-11-13T05:43:44;3.60;99.90
13742;DHT22;8461;52.356;10.704;2022-11-13T05:48:39;3.50;99.90
13742;DHT22;8461;52.356;10.704;2022-11-13T05:51:09;3.50;99.90
13742;DHT22;8461;52.356;10.704;2022-11-13T05:53:35;3.50;99.90
13742;DHT22;8461;52.356;10.704;2022-11-13T05:56:03;3.40;99.90
13742;DHT22;8461;52.356;10.704;2022-11-13T05:58:30;3.40;99.90
13742;DHT22;8461;52.356;10.704;2022-11-13T06:03:38;3.40;99.90
13742;DHT22;8461;52.356;10.704;2022-11-13T06:06:05;3.30;99.90
13742;DHT22;8461;52.356;10.704;2022-11-13T06:08:31;3.30;99.90
13742;DHT22;8461;52.356;10.704;2022-11-13T06:11:02;3.30;99.90
13742;DHT22;8461;52.356;10.704;2022-11-13T06:13:28;3.30;99.90
13742;DHT22;8461;52.356;10.704;2022-11-13T06:16:00;3.30;99.90
13742;DHT22;8461;52.356;10.704;2022-11-13T06:18:25;3.20;99.90
13742;DHT22;8461;52.356;10.704;2022-11-13T06:20:51;3.20;99.90
13742;DHT22;8461;52.356;10.704;2022-11-13T06:23:16;3.20;99.90
13742;DHT22;8461;52.356;10.704;2022-11-13T06:25:42;3.10;99.90
13742;DHT22;8461;52.356;10.704;2022-11-13T06:28:08;3.10;99.90
13742;DHT22;8461;52.356;10.704;2022-11-13T06:30:33;3.10;99.90
13742;DHT22;8461;52.356;10.704;2022-11-13T06:32:59;3.10;99.90
13742;DHT22;8461;52.356;10.704;2022-11-13T06:35:24;3.10;99.90
13742;DHT22;8461;52.356;10.704;2022-11-13T06:37:50;3.10;99.90
13742;DHT22;8461;52.356;10.704;2022-11-13T06:40:15;3.10;99.90
13742;DHT22;8461;52.356;10.704;2022-11-13T06:42:41;3.10;99.90
13742;DHT22;8461;52.356;10.704;2022-11-13T06:45:07;3.20;99.90
13742;DHT22;8461;52.356;10.704;2022-11-13T06:47:33;3.30;99.90
13742;DHT22;8461;52.356;10.704;2022-11-13T06:49:58;3.30;99.90
13742;DHT22;8461;52.356;10.704;2022-11-13T06:52:24;3.40;99.90
13742;DHT22;8461;52.356;10.704;2022-11-13T06:54:49;3.40;99.90
13742;DHT22;8461;52.356;10.704;2022-11-13T06:57:15;3.40;99.90
13742;DHT22;8461;52.356;10.704;2022-11-13T06:59:40;3.40;99.90
13742;DHT22;8461;52.356;10.704;2022-11-13T07:02:08;3.40;99.90
13742;DHT22;8461;52.356;10.704;2022-11-13T07:04:35;3.40;99.90
13742;DHT22;8461;52.356;10.704;2022-11-13T07:07:01;3.40;99.90
13742;DHT22;8461;52.356;10.704;2022-11-13T07:09:27;3.40;99.90
13742;DHT22;8461;52.356;10.704;2022-11-13T07:11:52;3.40;99.90
13742;DHT22;8461;52.356;10.704;2022-11-13T07:14:18;3.50;99.90
13742;DHT22;8461;52.356;10.704;2022-11-13T07:16:43;3.50;99.90
13742;DHT22;8461;52.356;10.704;2022-11-13T07:19:09;3.50;99.90
13742;DHT22;8461;52.356;10.704;2022-11-13T07:21:34;3.50;99.90
13742;DHT22;8461;52.356;10.704;2022-11-13T07:24:00;3.50;99.90
13742;DHT22;8461;52.356;10.704;2022-11-13T07:26:25;3.60;99.90
13742;DHT22;8461;52.356;10.704;2022-11-13T07:28:51;3.60;99.90
13742;DHT22;8461;52.356;10.704;2022-11-13T07:31:17;3.60;99.90
13742;DHT22;8461;52.356;10.704;2022-11-13T07:33:43;3.60;99.90
13742;DHT22;8461;52.356;10.704;2022-11-13T07:36:09;3.60;99.90
13742;DHT22;8461;52.356;10.704;2022-11-13T07:38:35;3.70;99.90
13742;DHT22;8461;52.356;10.704;2022-11-13T07:41:01;3.70;99.90
13742;DHT22;8461;52.356;10.704;2022-11-13T07:43:27;3.70;99.90
13742;DHT22;8461;52.356;10.704;2022-11-13T07:45:53;3.80;99.90
13742;DHT22;8461;52.356;10.704;2022-11-13T07:48:22;3.80;99.90
13742;DHT22;8461;52.356;10.704;2022-11-13T07:50:48;3.80;99.90
13742;DHT22;8461;52.356;10.704;2022-11-13T07:53:14;3.90;99.90
13742;DHT22;8461;52.356;10.704;2022-11-13T07:55:39;3.90;99.90
13742;DHT22;8461;52.356;10.704;2022-11-13T07:58:05;3.90;99.90
13742;DHT22;8461;52.356;10.704;2022-11-13T08:00:32;3.90;99.90
13742;DHT22;8461;52.356;10.704;2022-11-13T08:03:05;4.00;99.90
13742;DHT22;8461;52.356;10.704;2022-11-13T08:05:31;4.00;99.90
13742;DHT22;8461;52.356;10.704;2022-11-13T08:07:57;4.10;99.90
13742;DHT22;8461;52.356;10.704;2022-11-13T08:10:22;4.10;99.90
13742;DHT22;8461;52.356;10.704;2022-11-13T08:12:48;4.10;99.90
13742;DHT22;8461;52.356;10.704;2022-11-13T08:15:13;4.10;99.90
13742;DHT22;8461;52.356;10.704;2022-11-13T08:17:39;4.20;99.90
13742;DHT22;8461;52.356;10.704;2022-11-13T08:20:06;4.30;99.90
13742;DHT22;8461;52.356;10.704;2022-11-13T08:22:32;4.40;99.90
13742;DHT22;8461;52.356;10.704;2022-11-13T08:24:57;4.40;99.90
13742;DHT22;8461;52.356;10.704;2022-11-13T08:27:23;4.50;99.90
13742;DHT22;8461;52.356;10.704;2022-11-13T08:29:50;4.60;99.90
13742;DHT22;8461;52.356;10.704;2022-11-13T08:32:17;4.70;99.90
13742;DHT22;8461;52.356;10.704;2022-11-13T08:34:43;4.70;99.90
13742;DHT22;8461;52.356;10.704;2022-11-13T08:37:09;4.90;99.90
13742;DHT22;8461;52.356;10.704;2022-11-13T08:39:34;4.90;99.90
13742;DHT22;8461;52.356;10.704;2022-11-13T08:42:01;5.00;99.90
13742;DHT22;8461;52.356;10.704;2022-11-13T08:44:27;5.00;99.90
13742;DHT22;8461;52.356;10.704;2022-11-13T08:46:52;5.10;99.90
13742;DHT22;8461;52.356;10.704;2022-11-13T08:49:18;5.20;99.90
13742;DHT22;8461;52.356;10.704;2022-11-13T08:51:43;5.40;99.90
13742;DHT22;8461;52.356;10.704;2022-11-13T08:54:09;5.40;99.90
13742;DHT22;8461;52.356;10.704;2022-11-13T08:56:34;5.50;99.90
13742;DHT22;8461;52.356;10.704;2022-11-13T08:59:00;5.60;99.90
13742;DHT22;8461;52.356;10.704;2022-11-13T09:01:25;5.70;99.90
13742;DHT22;8461;52.356;10.704;2022-11-13T09:03:51;5.70;99.90
13742;DHT22;8461;52.356;10.704;2022-11-13T09:06:16;5.80;99.90
13742;DHT22;8461;52.356;10.704;2022-11-13T09:08:42;5.90;99.90
13742;DHT22;8461;52.356;10.704;2022-11-13T09:11:08;5.90;99.90
13742;DHT22;8461;52.356;10.704;2022-11-13T09:13:33;6.00;99.90
13742;DHT22;8461;52.356;10.704;2022-11-13T09:16:01;6.10;99.90
13742;DHT22;8461;52.356;10.704;2022-11-13T09:18:27;6.20;99.90
13742;DHT22;8461;52.356;10.704;2022-11-13T09:20:53;6.30;99.90
13742;DHT22;8461;52.356;10.704;2022-11-13T09:23:19;6.40;99.90
13742;DHT22;8461;52.356;10.704;2022-11-13T09:25:45;6.50;99.90
13742;DHT22;8461;52.356;10.704;2022-11-13T09:28:10;6.50;99.90
13742;DHT22;8461;52.356;10.704;2022-11-13T09:30:38;6.60;99.90
13742;DHT22;8461;52.356;10.704;2022-11-13T09:33:04;6.50;99.90
13742;DHT22;8461;52.356;10.704;2022-11-13T09:35:31;6.50;99.90
13742;DHT22;8461;52.356;10.704;2022-11-13T09:38:08;6.50;99.90
13742;DHT22;8461;52.356;10.704;2022-11-13T09:45:53;6.50;99.90
13742;DHT22;8461;52.356;10.704;2022-11-13T09:48:28;6.50;99.90
13742;DHT22;8461;52.356;10.704;2022-11-13T09:50:55;6.60;99.90
13742;DHT22;8461;52.356;10.704;2022-11-13T09:53:21;6.70;99.90
13742;DHT22;8461;52.356;10.704;2022-11-13T09:58:54;6.70;99.90
13742;DHT22;8461;52.356;10.704;2022-11-13T10:03:59;6.60;99.90
13742;DHT22;8461;52.356;10.704;2022-11-13T10:06:33;6.70;99.90
13742;DHT22;8461;52.356;10.704;2022-11-13T10:09:13;6.70;99.90
13742;DHT22;8461;52.356;10.704;2022-11-13T10:11:50;6.80;99.90
13742;DHT22;8461;52.356;10.704;2022-11-13T10:14:22;6.90;99.90
13742;DHT22;8461;52.356;10.704;2022-11-13T10:16:53;7.00;99.90
13742;DHT22;8461;52.356;10.704;2022-11-13T10:19:52;7.10;99.90
13742;DHT22;8461;52.356;10.704;2022-11-13T10:22:39;7.00;99.90
13742;DHT22;8461;52.356;10.704;2022-11-13T10:25:12;7.00;99.90
13742;DHT22;8461;52.356;10.704;2022-11-13T10:27:39;7.10;99.90
13742;DHT22;8461;52.356;10.704;2022-11-13T10:30:13;7.20;99.90
13742;DHT22;8461;52.356;10.704;2022-11-13T10:32:38;7.00;99.90
13742;DHT22;8461;52.356;10.704;2022-11-13T10:40:29;7.00;99.90
13742;DHT22;8461;52.356;10.704;2022-11-13T10:45:31;7.10;99.90
13742;DHT22;8461;52.356;10.704;2022-11-13T10:47:58;7.10;99.90
13742;DHT22;8461;52.356;10.704;2022-11-13T10:50:28;7.10;99.90
13742;DHT22;8461;52.356;10.704;2022-11-13T10:52:55;7.10;99.90
13742;DHT22;8461;52.356;10.704;2022-11-13T10:58:02;7.10;99.90
13742;DHT22;8461;52.356;10.704;2022-11-13T11:00:32;7.00;99.90
13742;DHT22;8461;52.356;10.704;2022-11-13T11:02:57;7.10;99.90
13742;DHT22;8461;52.356;10.704;2022-11-13T11:05:25;7.20;99.90
13742;DHT22;8461;52.356;10.704;2022-11-13T11:07:52;7.10;99.90
13742;DHT22;8461;52.356;10.704;2022-11-13T11:10:20;7.00;99.90
13742;DHT22;8461;52.356;10.704;2022-11-13T11:12:58;7.10;99.90
13742;DHT22;8461;52.356;10.704;2022-11-13T11:15:45;7.00;99.90
13742;DHT22;8461;52.356;10.704;2022-11-13T11:18:25;7.10;99.90
13742;DHT22;8461;52.356;10.704;2022-11-13T11:21:00;7.00;99.90
13742;DHT22;8461;52.356;10.704;2022-11-13T11:23:48;7.00;99.90
13742;DHT22;8461;52.356;10.704;2022-11-13T11:26:20;7.10;99.90
13742;DHT22;8461;52.356;10.704;2022-11-13T11:28:51;7.20;99.90
13742;DHT22;8461;52.356;10.704;2022-11-13T11:33:59;7.20;99.90
13742;DHT22;8461;52.356;10.704;2022-11-13T11:36:33;7.20;99.90
13742;DHT22;8461;52.356;10.704;2022-11-13T11:39:14;7.20;99.90
13742;DHT22;8461;52.356;10.704;2022-11-13T11:47:17;7.20;99.90
13742;DHT22;8461;52.356;10.704;2022-11-13T11:49:43;7.30;99.90
13742;DHT22;8461;52.356;10.704;2022-11-13T11:55:10;7.10;99.90
13742;DHT22;8461;52.356;10.704;2022-11-13T11:57:49;7.00;99.90
13742;DHT22;8461;52.356;10.704;2022-11-13T12:00:19;7.00;99.90
13742;DHT22;8461;52.356;10.704;2022-11-13T12:03:17;7.00;99.90
13742;DHT22;8461;52.356;10.704;2022-11-13T12:08:54;7.00;99.90
13742;DHT22;8461;52.356;10.704;2022-11-13T12:16:48;7.10;99.90
13742;DHT22;8461;52.356;10.704;2022-11-13T12:25:39;7.10;99.90
13742;DHT22;8461;52.356;10.704;2022-11-13T12:28:33;7.00;99.90
13742;DHT22;8461;52.356;10.704;2022-11-13T12:33:36;6.90;99.90
13742;DHT22;8461;52.356;10.704;2022-11-13T12:36:07;7.00;99.90
13742;DHT22;8461;52.356;10.704;2022-11-13T12:38:47;7.00;99.90
13742;DHT22;8461;52.356;10.704;2022-11-13T12:44:25;6.80;99.90
13742;DHT22;8461;52.356;10.704;2022-11-13T12:46:53;6.80;99.90
13742;DHT22;8461;52.356;10.704;2022-11-13T12:56:52;6.80;99.90
13742;DHT22;8461;52.356;10.704;2022-11-13T12:59:32;6.80;99.90
13742;DHT22;8461;52.356;10.704;2022-11-13T13:08:03;6.80;99.90
13742;DHT22;8461;52.356;10.704;2022-11-13T13:10:41;6.80;99.90
13742;DHT22;8461;52.356;10.704;2022-11-13T13:13:40;6.90;99.90
13742;DHT22;8461;52.356;10.704;2022-11-13T13:16:08;6.80;99.90
13742;DHT22;8461;52.356;10.704;2022-11-13T13:18:35;6.80;99.90
13742;DHT22;8461;52.356;10.704;2022-11-13T13:21:11;6.90;99.90
13742;DHT22;8461;52.356;10.704;2022-11-13T13:23:39;6.80;99.90
13742;DHT22;8461;52.356;10.704;2022-11-13T13:26:19;6.90;99.90
13742;DHT22;8461;52.356;10.704;2022-11-13T13:36:57;6.90;99.90
13742;DHT22;8461;52.356;10.704;2022-11-13T13:39:30;6.90;99.90
13742;DHT22;8461;52.356;10.704;2022-11-13T13:47:30;6.90;99.90
13742;DHT22;8461;52.356;10.704;2022-11-13T13:49:56;6.90;99.90
13742;DHT22;8461;52.356;10.704;2022-11-13T13:52:32;7.00;99.90
13742;DHT22;8461;52.356;10.704;2022-11-13T13:55:00;7.00;99.90
13742;DHT22;8461;52.356;10.704;2022-11-13T13:57:27;7.10;99.90
13742;DHT22;8461;52.356;10.704;2022-11-13T13:59:53;7.10;99.90
13742;DHT22;8461;52.356;10.704;2022-11-13T14:02:21;7.10;99.90
13742;DHT22;8461;52.356;10.704;2022-11-13T14:04:52;7.10;99.90
13742;DHT22;8461;52.356;10.704;2022-11-13T14:07:26;7.20;99.90
13742;DHT22;8461;52.356;10.704;2022-11-13T14:12:33;7.20;99.90
13742;DHT22;8461;52.356;10.704;2022-11-13T14:14:58;7.20;99.90
13742;DHT22;8461;52.356;10.704;2022-11-13T14:17:24;7.20;99.90
13742;DHT22;8461;52.356;10.704;2022-11-13T14:19:54;7.20;99.90
13742;DHT22;8461;52.356;10.704;2022-11-13T14:22:21;7.20;99.90
13742;DHT22;8461;52.356;10.704;2022-11-13T14:24:53;7.20;99.90
13742;DHT22;8461;52.356;10.704;2022-11-13T14:27:24;7.30;99.90
13742;DHT22;8461;52.356;10.704;2022-11-13T14:29:56;7.30;99.90
13742;DHT22;8461;52.356;10.704;2022-11-13T14:32:33;7.30;99.90
13742;DHT22;8461;52.356;10.704;2022-11-13T14:35:04;7.30;99.90
13742;DHT22;8461;52.356;10.704;2022-11-13T14:37:38;7.40;99.90
13742;DHT22;8461;52.356;10.704;2022-11-13T14:42:54;7.40;99.90
13742;DHT22;8461;52.356;10.704;2022-11-13T14:45:24;7.40;99.90
13742;DHT22;8461;52.356;10.704;2022-11-13T14:48:01;7.40;99.90
13742;DHT22;8461;52.356;10.704;2022-11-13T14:50:30;7.40;99.90
13742;DHT22;8461;52.356;10.704;2022-11-13T14:53:04;7.40;99.90
13742;DHT22;8461;52.356;10.704;2022-11-13T14:55:35;7.40;99.90
13742;DHT22;8461;52.356;10.704;2022-11-13T14:58:01;7.40;99.90
13742;DHT22;8461;52.356;10.704;2022-11-13T15:00:35;7.40;99.90
13742;DHT22;8461;52.356;10.704;2022-11-13T15:03:03;7.40;99.90
13742;DHT22;8461;52.356;10.704;2022-11-13T15:05:29;7.40;99.90
13742;DHT22;8461;52.356;10.704;2022-11-13T15:07:55;7.40;99.90
13742;DHT22;8461;52.356;10.704;2022-11-13T15:10:23;7.50;99.90
13742;DHT22;8461;52.356;10.704;2022-11-13T15:12:49;7.50;99.90
13742;DHT22;8461;52.356;10.704;2022-11-13T15:15:18;7.50;99.90
13742;DHT22;8461;52.356;10.704;2022-11-13T15:17:46;7.50;99.90
13742;DHT22;8461;52.356;10.704;2022-11-13T15:20:25;7.50;99.90
13742;DHT22;8461;52.356;10.704;2022-11-13T15:22:52;7.50;99.90
13742;DHT22;8461;52.356;10.704;2022-11-13T15:25:20;7.40;99.90
13742;DHT22;8461;52.356;10.704;2022-11-13T15:27:46;7.40;99.90
13742;DHT22;8461;52.356;10.704;2022-11-13T15:30:13;7.40;99.90
13742;DHT22;8461;52.356;10.704;2022-11-13T15:32:38;7.40;99.90
13742;DHT22;8461;52.356;10.704;2022-11-13T15:35:06;7.40;99.90
13742;DHT22;8461;52.356;10.704;2022-11-13T15:37:34;7.40;99.90
13742;DHT22;8461;52.356;10.704;2022-11-13T15:40:00;7.40;99.90
13742;DHT22;8461;52.356;10.704;2022-11-13T15:42:28;7.40;99.90
13742;DHT22;8461;52.356;10.704;2022-11-13T15:44:56;7.30;99.90
13742;DHT22;8461;52.356;10.704;2022-11-13T15:47:32;7.30;99.90
13742;DHT22;8461;52.356;10.704;2022-11-13T15:50:00;7.30;99.90
13742;DHT22;8461;52.356;10.704;2022-11-13T15:52:28;7.30;99.90
13742;DHT22;8461;52.356;10.704;2022-11-13T15:54:55;7.30;99.90
13742;DHT22;8461;52.356;10.704;2022-11-13T15:57:24;7.30;99.90
13742;DHT22;8461;52.356;10.704;2022-11-13T15:59:50;7.30;99.90
13742;DHT22;8461;52.356;10.704;2022-11-13T16:02:16;7.30;99.90
13742;DHT22;8461;52.356;10.704;2022-11-13T16:04:42;7.30;99.90
13742;DHT22;8461;52.356;10.704;2022-11-13T16:07:20;7.30;99.90
13742;DHT22;8461;52.356;10.704;2022-11-13T16:09:47;7.40;99.90
13742;DHT22;8461;52.356;10.704;2022-11-13T16:12:13;7.40;99.90
13742;DHT22;8461;52.356;10.704;2022-11-13T16:14:39;7.30;99.90
13742;DHT22;8461;52.356;10.704;2022-11-13T16:17:10;7.40;99.90
13742;DHT22;8461;52.356;10.704;2022-11-13T16:19:37;7.40;99.90
13742;DHT22;8461;52.356;10.704;2022-11-13T16:22:09;7.40;99.90
13742;DHT22;8461;52.356;10.704;2022-11-13T16:24:39;7.40;99.90
13742;DHT22;8461;52.356;10.704;2022-11-13T16:27:07;7.30;99.90
13742;DHT22;8461;52.356;10.704;2022-11-13T16:29:33;7.30;99.90
13742;DHT22;8461;52.356;10.704;2022-11-13T16:31:59;7.30;99.90
13742;DHT22;8461;52.356;10.704;2022-11-13T16:34:24;7.30;99.90
13742;DHT22;8461;52.356;10.704;2022-11-13T16:36:50;7.30;99.90
13742;DHT22;8461;52.356;10.704;2022-11-13T16:39:16;7.30;99.90
13742;DHT22;8461;52.356;10.704;2022-11-13T16:41:41;7.30;99.90
13742;DHT22;8461;52.356;10.704;2022-11-13T16:44:07;7.30;99.90
13742;DHT22;8461;52.356;10.704;2022-11-13T16:46:34;7.30;99.90
13742;DHT22;8461;52.356;10.704;2022-11-13T16:49:01;7.30;99.90
13742;DHT22;8461;52.356;10.704;2022-11-13T16:51:27;7.30;99.90
13742;DHT22;8461;52.356;10.704;2022-11-13T16:53:52;7.30;99.90
13742;DHT22;8461;52.356;10.704;2022-11-13T16:56:25;7.30;99.90
13742;DHT22;8461;52.356;10.704;2022-11-13T16:58:56;7.30;99.90
13742;DHT22;8461;52.356;10.704;2022-11-13T17:01:22;7.30;99.90
13742;DHT22;8461;52.356;10.704;2022-11-13T17:03:47;7.40;99.90
13742;DHT22;8461;52.356;10.704;2022-11-13T17:06:34;7.40;99.90
13742;DHT22;8461;52.356;10.704;2022-11-13T17:09:02;7.40;99.90
13742;DHT22;8461;52.356;10.704;2022-11-13T17:11:30;7.30;99.90
13742;DHT22;8461;52.356;10.704;2022-11-13T17:13:57;7.30;99.90
13742;DHT22;8461;52.356;10.704;2022-11-13T17:16:25;7.20;99.90
13742;DHT22;8461;52.356;10.704;2022-11-13T17:18:51;7.10;99.90
13742;DHT22;8461;52.356;10.704;2022-11-13T17:21:22;7.10;99.90
13742;DHT22;8461;52.356;10.704;2022-11-13T17:23:53;7.10;99.90